sensor_id;sensor_type;location;lat;lon;timestamp;P1;durP1;ratioP1;P2;durP2;ratioP2
15474;SDS011;7839;50.462;9.678;2022-08-21T00:04:43;0.52;;;0.50;;
15474;SDS011;7839;50.462;9.678;2022-08-21T00:11:24;0.55;;;0.55;;
15474;SDS011;7839;50.462;9.678;2022-08-21T00:18:05;0.40;;;0.40;;
15474;SDS011;7839;50.462;9.678;2022-08-21T00:24:46;2.15;;;2.00;;
15474;SDS011;7839;50.462;9.678;2022-08-21T00:31:26;0.50;;;0.50;;
15474;SDS011;7839;50.462;9.678;2022-08-21T00:38:07;0.52;;;0.52;;
15474;SDS011;7839;50.462;9.678;2022-08-21T00:44:48;0.30;;;0.30;;
15474;SDS011;7839;50.462;9.678;2022-08-21T00:51:35;0.30;;;0.30;;
15474;SDS011;7839;50.462;9.678;2022-08-21T00:58:18;0.50;;;0.50;;
15474;SDS011;7839;50.462;9.678;2022-08-21T01:04:58;0.35;;;0.35;;
15474;SDS011;7839;50.462;9.678;2022-08-21T01:11:39;0.40;;;0.40;;
15474;SDS011;7839;50.462;9.678;2022-08-21T01:18:21;0.70;;;0.25;;
15474;SDS011;7839;50.462;9.678;2022-08-21T01:25:03;0.30;;;0.30;;
15474;SDS011;7839;50.462;9.678;2022-08-21T01:31:44;0.30;;;0.30;;
15474;SDS011;7839;50.462;9.678;2022-08-21T01:38:25;0.40;;;0.40;;
15474;SDS011;7839;50.462;9.678;2022-08-21T01:45:05;0.50;;;0.50;;
15474;SDS011;7839;50.462;9.678;2022-08-21T01:51:46;0.43;;;0.43;;
15474;SDS011;7839;50.462;9.678;2022-08-21T01:58:26;0.45;;;0.45;;
15474;SDS011;7839;50.462;9.678;2022-08-21T02:05:07;0.38;;;0.38;;
15474;SDS011;7839;50.462;9.678;2022-08-21T02:11:47;0.50;;;0.50;;
15474;SDS011;7839;50.462;9.678;2022-08-21T02:18:28;0.30;;;0.30;;
15474;SDS011;7839;50.462;9.678;2022-08-21T02:25:10;0.35;;;0.35;;
15474;SDS011;7839;50.462;9.678;2022-08-21T02:31:50;0.30;;;0.30;;
15474;SDS011;7839;50.462;9.678;2022-08-21T02:38:31;0.30;;;0.30;;
15474;SDS011;7839;50.462;9.678;2022-08-21T02:45:13;0.30;;;0.30;;
15474;SDS011;7839;50.462;9.678;2022-08-21T02:51:53;0.40;;;0.40;;
15474;SDS011;7839;50.462;9.678;2022-08-21T02:58:35;0.20;;;0.20;;
15474;SDS011;7839;50.462;9.678;2022-08-21T03:05:16;0.25;;;0.25;;
15474;SDS011;7839;50.462;9.678;2022-08-21T03:11:56;0.28;;;0.28;;
15474;SDS011;7839;50.462;9.678;2022-08-21T03:18:37;0.30;;;0.30;;
15474;SDS011;7839;50.462;9.678;2022-08-21T03:25:17;0.30;;;0.30;;
15474;SDS011;7839;50.462;9.678;2022-08-21T03:31:58;0.25;;;0.25;;
15474;SDS011;7839;50.462;9.678;2022-08-21T03:38:38;0.25;;;0.25;;
15474;SDS011;7839;50.462;9.678;2022-08-21T03:45:18;0.30;;;0.30;;
15474;SDS011;7839;50.462;9.678;2022-08-21T03:51:59;0.30;;;0.30;;
15474;SDS011;7839;50.462;9.678;2022-08-21T03:58:39;0.30;;;0.30;;
15474;SDS011;7839;50.462;9.678;2022-08-21T04:05:20;0.40;;;0.40;;
15474;SDS011;7839;50.462;9.678;2022-08-21T04:12:10;0.25;;;0.25;;
15474;SDS011;7839;50.462;9.678;2022-08-21T04:18:50;0.40;;;0.40;;
15474;SDS011;7839;50.462;9.678;2022-08-21T04:25:30;0.20;;;0.20;;
15474;SDS011;7839;50.462;9.678;2022-08-21T04:32:11;0.20;;;0.20;;
15474;SDS011;7839;50.462;9.678;2022-08-21T04:38:52;0.20;;;0.20;;
15474;SDS011;7839;50.462;9.678;2022-08-21T04:45:33;0.20;;;0.20;;
15474;SDS011;7839;50.462;9.678;2022-08-21T04:52:15;0.30;;;0.30;;
15474;SDS011;7839;50.462;9.678;2022-08-21T04:58:58;0.30;;;0.30;;
15474;SDS011;7839;50.462;9.678;2022-08-21T05:05:39;0.30;;;0.30;;
15474;SDS011;7839;50.462;9.678;2022-08-21T05:12:19;0.20;;;0.20;;
15474;SDS011;7839;50.462;9.678;2022-08-21T05:19:00;0.20;;;0.20;;
15474;SDS011;7839;50.462;9.678;2022-08-21T05:25:40;0.40;;;0.40;;
15474;SDS011;7839;50.462;9.678;2022-08-21T05:32:21;0.25;;;0.25;;
15474;SDS011;7839;50.462;9.678;2022-08-21T05:39:02;0.20;;;0.20;;
15474;SDS011;7839;50.462;9.678;2022-08-21T05:45:42;0.20;;;0.20;;
15474;SDS011;7839;50.462;9.678;2022-08-21T05:52:22;0.30;;;0.30;;
15474;SDS011;7839;50.462;9.678;2022-08-21T05:59:03;0.20;;;0.20;;
15474;SDS011;7839;50.462;9.678;2022-08-21T06:05:43;0.30;;;0.30;;
15474;SDS011;7839;50.462;9.678;2022-08-21T06:12:24;0.30;;;0.20;;
15474;SDS011;7839;50.462;9.678;2022-08-21T06:19:05;0.22;;;0.22;;
15474;SDS011;7839;50.462;9.678;2022-08-21T06:25:45;0.93;;;0.93;;
15474;SDS011;7839;50.462;9.678;2022-08-21T06:32:27;0.20;;;0.20;;
15474;SDS011;7839;50.462;9.678;2022-08-21T06:39:07;0.20;;;0.20;;
15474;SDS011;7839;50.462;9.678;2022-08-21T06:45:47;7.15;;;2.00;;
15474;SDS011;7839;50.462;9.678;2022-08-21T06:52:27;1.00;;;1.00;;
15474;SDS011;7839;50.462;9.678;2022-08-21T06:59:08;0.30;;;0.30;;
15474;SDS011;7839;50.462;9.678;2022-08-21T07:05:48;0.22;;;0.22;;
15474;SDS011;7839;50.462;9.678;2022-08-21T07:12:28;0.30;;;0.30;;
15474;SDS011;7839;50.462;9.678;2022-08-21T07:19:08;0.20;;;0.20;;
15474;SDS011;7839;50.462;9.678;2022-08-21T07:25:49;0.20;;;0.20;;
15474;SDS011;7839;50.462;9.678;2022-08-21T07:32:29;2.83;;;2.63;;
15474;SDS011;7839;50.462;9.678;2022-08-21T07:39:09;0.50;;;0.50;;
15474;SDS011;7839;50.462;9.678;2022-08-21T07:45:49;0.80;;;0.80;;
15474;SDS011;7839;50.462;9.678;2022-08-21T07:52:30;6.53;;;5.93;;
15474;SDS011;7839;50.462;9.678;2022-08-21T07:59:12;7.05;;;5.75;;
15474;SDS011;7839;50.462;9.678;2022-08-21T08:05:52;0.82;;;0.82;;
15474;SDS011;7839;50.462;9.678;2022-08-21T08:12:33;8.75;;;5.95;;
15474;SDS011;7839;50.462;9.678;2022-08-21T08:19:13;10.70;;;6.00;;
15474;SDS011;7839;50.462;9.678;2022-08-21T08:25:54;6.30;;;4.90;;
15474;SDS011;7839;50.462;9.678;2022-08-21T08:32:34;6.00;;;3.87;;
15474;SDS011;7839;50.462;9.678;2022-08-21T08:39:14;8.03;;;4.57;;
15474;SDS011;7839;50.462;9.678;2022-08-21T08:45:55;6.90;;;4.00;;
15474;SDS011;7839;50.462;9.678;2022-08-21T08:52:41;2.60;;;1.60;;
15474;SDS011;7839;50.462;9.678;2022-08-21T08:59:25;4.45;;;3.30;;
15474;SDS011;7839;50.462;9.678;2022-08-21T09:13:00;7.83;;;4.20;;
15474;SDS011;7839;50.462;9.678;2022-08-21T09:19:48;8.00;;;3.70;;
15474;SDS011;7839;50.462;9.678;2022-08-21T09:26:36;12.77;;;4.47;;
15474;SDS011;7839;50.462;9.678;2022-08-21T09:33:23;5.80;;;3.90;;
15474;SDS011;7839;50.462;9.678;2022-08-21T09:40:13;6.53;;;3.80;;
15474;SDS011;7839;50.462;9.678;2022-08-21T09:46:55;7.35;;;3.53;;
15474;SDS011;7839;50.462;9.678;2022-08-21T09:53:37;5.28;;;3.00;;
15474;SDS011;7839;50.462;9.678;2022-08-21T10:07:08;7.25;;;3.08;;
15474;SDS011;7839;50.462;9.678;2022-08-21T10:13:59;2.50;;;2.30;;
15474;SDS011;7839;50.462;9.678;2022-08-21T10:20:54;4.57;;;2.75;;
15474;SDS011;7839;50.462;9.678;2022-08-21T10:34:33;8.68;;;2.60;;
15474;SDS011;7839;50.462;9.678;2022-08-21T10:41:21;4.13;;;2.50;;
15474;SDS011;7839;50.462;9.678;2022-08-21T10:48:07;2.78;;;2.58;;
15474;SDS011;7839;50.462;9.678;2022-08-21T11:08:46;2.40;;;2.20;;
15474;SDS011;7839;50.462;9.678;2022-08-21T11:28:54;2.38;;;2.17;;
15474;SDS011;7839;50.462;9.678;2022-08-21T11:49:41;2.70;;;2.50;;
15474;SDS011;7839;50.462;9.678;2022-08-21T11:56:24;3.55;;;2.47;;
15474;SDS011;7839;50.462;9.678;2022-08-21T12:03:06;4.57;;;2.78;;
15474;SDS011;7839;50.462;9.678;2022-08-21T12:09:51;2.63;;;2.42;;
15474;SDS011;7839;50.462;9.678;2022-08-21T12:23:15;4.82;;;2.13;;
15474;SDS011;7839;50.462;9.678;2022-08-21T12:29:58;5.13;;;2.72;;
15474;SDS011;7839;50.462;9.678;2022-08-21T12:36:42;4.20;;;2.72;;
15474;SDS011;7839;50.462;9.678;2022-08-21T12:43:43;8.05;;;2.60;;
15474;SDS011;7839;50.462;9.678;2022-08-21T12:57:21;2.95;;;2.50;;
15474;SDS011;7839;50.462;9.678;2022-08-21T13:04:03;3.97;;;2.67;;
15474;SDS011;7839;50.462;9.678;2022-08-21T13:10:47;3.25;;;2.63;;
15474;SDS011;7839;50.462;9.678;2022-08-21T13:17:30;3.00;;;2.70;;
15474;SDS011;7839;50.462;9.678;2022-08-21T13:30:57;2.47;;;2.10;;
15474;SDS011;7839;50.462;9.678;2022-08-21T13:37:38;3.83;;;2.40;;
15474;SDS011;7839;50.462;9.678;2022-08-21T13:44:21;3.08;;;2.60;;
15474;SDS011;7839;50.462;9.678;2022-08-21T13:51:02;5.53;;;2.70;;
15474;SDS011;7839;50.462;9.678;2022-08-21T13:57:42;4.30;;;2.40;;
15474;SDS011;7839;50.462;9.678;2022-08-21T14:04:24;3.50;;;2.47;;
15474;SDS011;7839;50.462;9.678;2022-08-21T14:11:05;2.92;;;2.10;;
15474;SDS011;7839;50.462;9.678;2022-08-21T14:17:45;5.43;;;2.40;;
15474;SDS011;7839;50.462;9.678;2022-08-21T14:24:27;4.40;;;2.47;;
15474;SDS011;7839;50.462;9.678;2022-08-21T14:31:15;3.25;;;2.83;;
15474;SDS011;7839;50.462;9.678;2022-08-21T14:37:56;4.20;;;2.40;;
15474;SDS011;7839;50.462;9.678;2022-08-21T14:44:37;3.78;;;2.53;;
15474;SDS011;7839;50.462;9.678;2022-08-21T14:51:17;3.75;;;2.20;;
15474;SDS011;7839;50.462;9.678;2022-08-21T14:57:57;3.05;;;2.70;;
15474;SDS011;7839;50.462;9.678;2022-08-21T15:04:38;2.65;;;2.45;;
15474;SDS011;7839;50.462;9.678;2022-08-21T15:11:19;2.55;;;2.35;;
15474;SDS011;7839;50.462;9.678;2022-08-21T15:17:59;5.85;;;2.78;;
15474;SDS011;7839;50.462;9.678;2022-08-21T15:24:40;2.92;;;2.28;;
15474;SDS011;7839;50.462;9.678;2022-08-21T15:31:20;3.92;;;2.33;;
15474;SDS011;7839;50.462;9.678;2022-08-21T15:38:00;3.75;;;2.00;;
15474;SDS011;7839;50.462;9.678;2022-08-21T15:44:41;2.17;;;1.92;;
15474;SDS011;7839;50.462;9.678;2022-08-21T15:51:22;5.03;;;2.05;;
15474;SDS011;7839;50.462;9.678;2022-08-21T15:58:02;3.72;;;2.22;;
15474;SDS011;7839;50.462;9.678;2022-08-21T16:04:43;4.28;;;2.45;;
15474;SDS011;7839;50.462;9.678;2022-08-21T16:11:23;2.75;;;1.83;;
15474;SDS011;7839;50.462;9.678;2022-08-21T16:18:03;4.22;;;2.40;;
15474;SDS011;7839;50.462;9.678;2022-08-21T16:24:44;3.15;;;1.88;;
15474;SDS011;7839;50.462;9.678;2022-08-21T16:31:24;3.13;;;2.28;;
15474;SDS011;7839;50.462;9.678;2022-08-21T16:38:05;3.10;;;1.80;;
15474;SDS011;7839;50.462;9.678;2022-08-21T16:44:45;3.13;;;1.75;;
15474;SDS011;7839;50.462;9.678;2022-08-21T16:51:25;2.83;;;1.80;;
15474;SDS011;7839;50.462;9.678;2022-08-21T16:58:15;2.55;;;2.15;;
15474;SDS011;7839;50.462;9.678;2022-08-21T17:04:56;3.55;;;1.92;;
15474;SDS011;7839;50.462;9.678;2022-08-21T17:11:37;2.33;;;2.13;;
15474;SDS011;7839;50.462;9.678;2022-08-21T17:18:18;2.38;;;2.17;;
15474;SDS011;7839;50.462;9.678;2022-08-21T17:24:59;2.30;;;2.15;;
15474;SDS011;7839;50.462;9.678;2022-08-21T17:31:39;2.70;;;2.50;;
15474;SDS011;7839;50.462;9.678;2022-08-21T17:38:20;2.35;;;2.15;;
15474;SDS011;7839;50.462;9.678;2022-08-21T17:45:00;2.35;;;2.22;;
15474;SDS011;7839;50.462;9.678;2022-08-21T17:51:40;2.47;;;2.28;;
15474;SDS011;7839;50.462;9.678;2022-08-21T17:58:21;2.30;;;2.20;;
15474;SDS011;7839;50.462;9.678;2022-08-21T18:05:01;3.22;;;2.35;;
15474;SDS011;7839;50.462;9.678;2022-08-21T18:11:42;2.20;;;2.05;;
15474;SDS011;7839;50.462;9.678;2022-08-21T18:18:23;2.63;;;2.22;;
15474;SDS011;7839;50.462;9.678;2022-08-21T18:25:04;2.88;;;2.47;;
15474;SDS011;7839;50.462;9.678;2022-08-21T18:31:45;1.80;;;1.70;;
15474;SDS011;7839;50.462;9.678;2022-08-21T18:38:25;2.15;;;1.98;;
15474;SDS011;7839;50.462;9.678;2022-08-21T18:45:08;1.98;;;1.88;;
15474;SDS011;7839;50.462;9.678;2022-08-21T18:51:49;2.10;;;2.00;;
15474;SDS011;7839;50.462;9.678;2022-08-21T18:58:29;2.05;;;1.95;;
15474;SDS011;7839;50.462;9.678;2022-08-21T19:05:10;1.92;;;1.83;;
15474;SDS011;7839;50.462;9.678;2022-08-21T19:11:51;1.70;;;1.55;;
15474;SDS011;7839;50.462;9.678;2022-08-21T19:18:33;1.80;;;1.70;;
15474;SDS011;7839;50.462;9.678;2022-08-21T19:25:14;3.63;;;2.65;;
15474;SDS011;7839;50.462;9.678;2022-08-21T19:31:54;1.83;;;1.73;;
15474;SDS011;7839;50.462;9.678;2022-08-21T19:38:35;1.65;;;1.55;;
15474;SDS011;7839;50.462;9.678;2022-08-21T19:45:15;1.80;;;1.70;;
15474;SDS011;7839;50.462;9.678;2022-08-21T19:51:55;1.70;;;1.60;;
15474;SDS011;7839;50.462;9.678;2022-08-21T19:58:39;1.20;;;1.20;;
15474;SDS011;7839;50.462;9.678;2022-08-21T20:05:20;1.45;;;1.35;;
15474;SDS011;7839;50.462;9.678;2022-08-21T20:12:01;1.50;;;1.40;;
15474;SDS011;7839;50.462;9.678;2022-08-21T20:18:42;1.30;;;1.30;;
15474;SDS011;7839;50.462;9.678;2022-08-21T20:25:22;1.40;;;1.30;;
15474;SDS011;7839;50.462;9.678;2022-08-21T20:32:03;1.20;;;1.20;;
15474;SDS011;7839;50.462;9.678;2022-08-21T20:38:43;1.05;;;1.05;;
15474;SDS011;7839;50.462;9.678;2022-08-21T20:45:28;0.93;;;0.93;;
15474;SDS011;7839;50.462;9.678;2022-08-21T20:52:08;5.53;;;2.58;;
15474;SDS011;7839;50.462;9.678;2022-08-21T20:59:13;1.50;;;1.20;;
15474;SDS011;7839;50.462;9.678;2022-08-21T21:05:56;1.15;;;1.15;;
15474;SDS011;7839;50.462;9.678;2022-08-21T21:12:40;1.30;;;1.20;;
15474;SDS011;7839;50.462;9.678;2022-08-21T21:26:02;0.90;;;0.82;;
15474;SDS011;7839;50.462;9.678;2022-08-21T21:32:44;0.82;;;0.82;;
15474;SDS011;7839;50.462;9.678;2022-08-21T21:39:29;0.90;;;0.90;;
15474;SDS011;7839;50.462;9.678;2022-08-21T21:46:22;1.00;;;0.98;;
15474;SDS011;7839;50.462;9.678;2022-08-21T22:06:27;0.90;;;0.90;;
15474;SDS011;7839;50.462;9.678;2022-08-21T22:19:52;0.80;;;0.80;;
15474;SDS011;7839;50.462;9.678;2022-08-21T22:26:36;0.57;;;0.57;;
15474;SDS011;7839;50.462;9.678;2022-08-21T22:33:19;0.80;;;0.80;;
15474;SDS011;7839;50.462;9.678;2022-08-21T22:40:00;1.00;;;1.00;;
15474;SDS011;7839;50.462;9.678;2022-08-21T22:46:46;0.80;;;0.80;;
15474;SDS011;7839;50.462;9.678;2022-08-21T22:53:28;0.75;;;0.75;;
15474;SDS011;7839;50.462;9.678;2022-08-21T23:00:11;0.80;;;0.80;;
15474;SDS011;7839;50.462;9.678;2022-08-21T23:06:55;0.57;;;0.57;;
15474;SDS011;7839;50.462;9.678;2022-08-21T23:13:42;0.70;;;0.70;;
15474;SDS011;7839;50.462;9.678;2022-08-21T23:20:41;0.60;;;0.60;;
15474;SDS011;7839;50.462;9.678;2022-08-21T23:34:22;0.65;;;0.65;;
